Time;durP1;ratioP1;P1;durP2;ratioP2;P2;SDS_P1;SDS_P2;PMS_P1;PMS_P2;Temp;Humidity;BMP_temperature;BMP_pressure;BME280_temperature;BME280_humidity;BME280_pressure;Samples;Min_cycle;Max_cycle;Signal;HPM_P1;HPM_P2
2024/01/12 00:02:04;;;;;;;53.20;26.48;;;;;;;;;;4970517;28;20090;-65
2024/01/12 00:04:30;;;;;;;54.00;27.95;;;;;;;;;;4970602;28;20586;-65
2024/01/12 00:06:56;;;;;;;54.58;26.67;;;;;;;;;;4970485;28;20126;-65
2024/01/12 00:09:23;;;;;;;54.95;27.80;;;;;;;;;;4969964;28;20607;-65
2024/01/12 00:11:49;;;;;;;56.22;27.58;;;;;;;;;;4962709;28;20050;-65
2024/01/12 00:14:15;;;;;;;57.25;27.90;;;;;;;;;;4951219;28;20039;-65
2024/01/12 00:16:47;;;;;;;51.92;27.30;;;;;;;;;;4959068;28;20039;-65
2024/01/12 00:19:13;;;;;;;54.50;27.45;;;;;;;;;;4969755;28;20501;-65
2024/01/12 00:21:39;;;;;;;47.38;23.95;;;;;;;;;;4966556;28;20058;-65
2024/01/12 00:24:05;;;;;;;50.70;25.00;;;;;;;;;;4952249;28;20102;-65
2024/01/12 00:26:31;;;;;;;46.40;24.08;;;;;;;;;;4960292;28;20456;-66
2024/01/12 00:28:57;;;;;;;51.13;26.40;;;;;;;;;;4954850;28;20043;-66
2024/01/12 00:31:23;;;;;;;49.38;26.00;;;;;;;;;;4969395;28;20555;-65
2024/01/12 00:33:49;;;;;;;49.60;24.60;;;;;;;;;;4974697;28;20035;-65
2024/01/12 00:36:15;;;;;;;50.17;23.02;;;;;;;;;;4974403;28;20038;-65
2024/01/12 00:38:41;;;;;;;47.33;23.23;;;;;;;;;;4974014;28;20514;-65
2024/01/12 00:41:07;;;;;;;44.08;23.80;;;;;;;;;;4973923;28;20061;-65
2024/01/12 00:43:34;;;;;;;44.65;22.52;;;;;;;;;;4957175;28;20047;-65
2024/01/12 00:46:00;;;;;;;45.65;21.65;;;;;;;;;;4954825;28;20046;-65
2024/01/12 00:48:26;;;;;;;48.22;21.05;;;;;;;;;;4954431;29;20578;-65
2024/01/12 00:50:52;;;;;;;46.72;20.73;;;;;;;;;;4954538;28;20050;-65
2024/01/12 00:53:18;;;;;;;44.92;19.52;;;;;;;;;;4955013;28;20043;-65
2024/01/12 00:55:44;;;;;;;40.47;18.30;;;;;;;;;;4954772;29;20047;-65
2024/01/12 00:58:10;;;;;;;36.33;17.83;;;;;;;;;;4959285;28;20097;-65
2024/01/12 01:00:36;;;;;;;29.15;12.50;;;;;;;;;;4973469;28;20780;-65
2024/01/12 01:03:02;;;;;;;34.80;13.88;;;;;;;;;;4973879;28;20050;-65
2024/01/12 01:05:28;;;;;;;26.35;10.95;;;;;;;;;;4974119;28;20117;-65
2024/01/12 01:07:54;;;;;;;26.42;11.20;;;;;;;;;;4954274;28;20478;-65
2024/01/12 01:10:20;;;;;;;32.85;13.35;;;;;;;;;;4959487;28;20073;-65
2024/01/12 01:12:46;;;;;;;33.58;12.15;;;;;;;;;;4972157;28;20030;-66
2024/01/12 01:15:14;;;;;;;29.40;9.25;;;;;;;;;;4960423;28;20062;-65
2024/01/12 01:17:40;;;;;;;27.75;11.60;;;;;;;;;;4967482;28;20043;-66
2024/01/12 01:20:07;;;;;;;30.15;10.13;;;;;;;;;;4953754;28;20098;-66
2024/01/12 01:22:34;;;;;;;26.92;10.40;;;;;;;;;;4956035;28;20051;-66
2024/01/12 01:25:03;;;;;;;27.98;10.73;;;;;;;;;;4952598;28;20043;-65
2024/01/12 01:27:29;;;;;;;27.83;9.50;;;;;;;;;;4968847;28;20046;-66
2024/01/12 01:29:55;;;;;;;25.70;10.07;;;;;;;;;;4953402;28;20043;-66
2024/01/12 01:32:21;;;;;;;26.33;10.23;;;;;;;;;;4953987;28;20055;-66
2024/01/12 01:34:47;;;;;;;29.38;9.57;;;;;;;;;;4963373;28;20102;-65
2024/01/12 01:37:13;;;;;;;30.58;9.73;;;;;;;;;;4973459;28;20478;-65
2024/01/12 01:39:39;;;;;;;25.38;8.75;;;;;;;;;;4972366;28;20043;-66
2024/01/12 01:42:05;;;;;;;28.05;8.52;;;;;;;;;;4971881;28;20053;-65
2024/01/12 01:44:31;;;;;;;23.30;9.10;;;;;;;;;;4973152;28;20093;-66
2024/01/12 01:46:59;;;;;;;22.70;8.05;;;;;;;;;;4973113;28;20139;-66
2024/01/12 01:49:26;;;;;;;19.38;7.55;;;;;;;;;;4956944;28;20046;-66
2024/01/12 01:51:52;;;;;;;21.25;7.03;;;;;;;;;;4953586;28;20110;-66
2024/01/12 01:54:19;;;;;;;18.52;7.07;;;;;;;;;;4958455;28;20067;-65
2024/01/12 01:56:45;;;;;;;19.73;6.90;;;;;;;;;;4972908;28;20047;-65
2024/01/12 01:59:12;;;;;;;21.90;7.93;;;;;;;;;;4972114;28;20690;-65
2024/01/12 02:01:38;;;;;;;27.10;7.35;;;;;;;;;;4972845;28;20055;-65
2024/01/12 02:04:04;;;;;;;21.42;7.05;;;;;;;;;;4972877;28;20059;-65
2024/01/12 02:06:32;;;;;;;21.80;6.60;;;;;;;;;;4972288;28;20529;-66
2024/01/12 02:08:59;;;;;;;21.42;6.32;;;;;;;;;;4971783;28;20051;-66
2024/01/12 02:11:25;;;;;;;20.85;6.30;;;;;;;;;;4967548;28;20050;-66
2024/01/12 02:13:51;;;;;;;13.93;6.10;;;;;;;;;;4953774;28;20429;-66
2024/01/12 02:16:17;;;;;;;21.52;6.40;;;;;;;;;;4972412;28;20130;-66
2024/01/12 02:18:43;;;;;;;24.27;6.50;;;;;;;;;;4971972;28;20669;-66
2024/01/12 02:21:09;;;;;;;19.45;6.72;;;;;;;;;;4970552;28;20050;-65
2024/01/12 02:23:35;;;;;;;22.38;7.18;;;;;;;;;;4952150;28;20051;-66
2024/01/12 02:26:02;;;;;;;19.48;6.72;;;;;;;;;;4957629;28;20057;-66
2024/01/12 02:28:28;;;;;;;14.02;6.13;;;;;;;;;;4952597;29;20473;-66
2024/01/12 02:30:54;;;;;;;14.73;6.18;;;;;;;;;;4961290;28;20378;-66
2024/01/12 02:33:20;;;;;;;15.75;6.65;;;;;;;;;;4972281;28;20047;-66
2024/01/12 02:35:46;;;;;;;26.40;7.03;;;;;;;;;;4972036;28;20093;-66
2024/01/12 02:38:12;;;;;;;13.27;5.43;;;;;;;;;;4971722;28;20038;-66
2024/01/12 02:40:38;;;;;;;18.73;6.57;;;;;;;;;;4972358;28;20577;-66
2024/01/12 02:43:04;;;;;;;18.55;6.70;;;;;;;;;;4962240;28;20051;-66
2024/01/12 02:45:30;;;;;;;17.83;6.95;;;;;;;;;;4952819;29;20043;-66
2024/01/12 02:47:56;;;;;;;20.92;6.82;;;;;;;;;;4964808;28;20039;-66
2024/01/12 02:50:22;;;;;;;18.73;5.97;;;;;;;;;;4956417;28;20049;-66
2024/01/12 02:52:48;;;;;;;12.38;5.78;;;;;;;;;;4971708;28;20047;-66
2024/01/12 02:55:14;;;;;;;10.90;5.72;;;;;;;;;;4971341;28;20043;-66
2024/01/12 02:57:40;;;;;;;11.10;5.45;;;;;;;;;;4971428;28;20039;-65
2024/01/12 03:00:07;;;;;;;13.18;6.00;;;;;;;;;;4953735;28;20035;-65
2024/01/12 03:02:33;;;;;;;19.92;6.53;;;;;;;;;;4955608;28;20891;-65
2024/01/12 03:04:59;;;;;;;12.18;5.72;;;;;;;;;;4971745;28;20129;-65
2024/01/12 03:07:25;;;;;;;17.52;6.10;;;;;;;;;;4959538;28;20122;-65
2024/01/12 03:09:51;;;;;;;14.77;6.50;;;;;;;;;;4952404;29;20039;-66
2024/01/12 03:12:17;;;;;;;12.88;5.57;;;;;;;;;;4959108;28;20439;-66
2024/01/12 03:14:43;;;;;;;14.88;6.55;;;;;;;;;;4951774;28;20035;-66
2024/01/12 03:17:10;;;;;;;13.95;5.78;;;;;;;;;;4963006;28;20049;-66
2024/01/12 03:19:36;;;;;;;15.10;6.65;;;;;;;;;;4958570;28;20046;-66
2024/01/12 03:22:02;;;;;;;15.88;8.07;;;;;;;;;;4951950;28;20038;-66
2024/01/12 03:24:28;;;;;;;12.45;6.88;;;;;;;;;;4971513;28;20047;-66
2024/01/12 03:26:54;;;;;;;15.00;6.13;;;;;;;;;;4964818;28;20047;-65
2024/01/12 03:29:20;;;;;;;16.30;6.20;;;;;;;;;;4952631;28;20078;-65
2024/01/12 03:31:46;;;;;;;16.90;6.72;;;;;;;;;;4951834;29;20035;-66
2024/01/12 03:34:12;;;;;;;12.77;6.47;;;;;;;;;;4951605;28;20122;-66
2024/01/12 03:36:38;;;;;;;12.52;6.15;;;;;;;;;;4951704;29;20075;-65
2024/01/12 03:39:04;;;;;;;15.45;6.43;;;;;;;;;;4951183;29;20730;-65
2024/01/12 03:41:30;;;;;;;15.80;6.30;;;;;;;;;;4951394;28;20049;-65
2024/01/12 03:43:56;;;;;;;13.23;5.55;;;;;;;;;;4951888;28;20049;-65
2024/01/12 03:46:22;;;;;;;14.40;6.35;;;;;;;;;;4951676;28;20355;-65
2024/01/12 03:48:48;;;;;;;15.40;6.22;;;;;;;;;;4951184;28;20119;-66
2024/01/12 03:51:14;;;;;;;19.95;6.18;;;;;;;;;;4951450;28;20414;-66
2024/01/12 03:53:40;;;;;;;10.75;5.78;;;;;;;;;;4951614;29;20078;-66
2024/01/12 03:56:06;;;;;;;17.35;5.95;;;;;;;;;;4951480;29;20059;-66
2024/01/12 03:58:32;;;;;;;10.35;5.93;;;;;;;;;;4950609;29;20047;-65
2024/01/12 04:00:58;;;;;;;9.13;5.22;;;;;;;;;;4951632;29;20050;-65
2024/01/12 04:03:24;;;;;;;17.38;6.78;;;;;;;;;;4951351;29;20051;-65
2024/01/12 04:05:50;;;;;;;14.43;5.97;;;;;;;;;;4950880;29;20039;-65
2024/01/12 04:08:16;;;;;;;14.98;6.45;;;;;;;;;;4968417;28;20039;-66
2024/01/12 04:10:42;;;;;;;16.67;6.13;;;;;;;;;;4965625;28;20039;-66
2024/01/12 04:13:08;;;;;;;15.80;6.20;;;;;;;;;;4951108;29;20070;-66
2024/01/12 04:15:34;;;;;;;13.02;6.88;;;;;;;;;;4962107;28;20070;-65
2024/01/12 04:18:00;;;;;;;14.10;6.18;;;;;;;;;;4952277;28;20043;-65
2024/01/12 04:20:26;;;;;;;16.42;6.47;;;;;;;;;;4950260;29;20062;-65
2024/01/12 04:22:52;;;;;;;12.13;6.13;;;;;;;;;;4951053;28;20131;-66
2024/01/12 04:25:18;;;;;;;11.48;5.55;;;;;;;;;;4951512;28;20035;-66
2024/01/12 04:27:44;;;;;;;17.80;6.15;;;;;;;;;;4958684;28;20038;-65
2024/01/12 04:30:10;;;;;;;14.68;6.22;;;;;;;;;;4950785;29;20619;-66
2024/01/12 04:32:36;;;;;;;12.52;6.03;;;;;;;;;;4969674;28;20050;-66
2024/01/12 04:35:02;;;;;;;22.45;7.07;;;;;;;;;;4964074;28;20043;-65
2024/01/12 04:37:28;;;;;;;12.38;6.20;;;;;;;;;;4950944;29;20413;-65
2024/01/12 04:39:54;;;;;;;13.63;6.20;;;;;;;;;;4963319;28;20039;-65
2024/01/12 04:42:20;;;;;;;18.40;6.00;;;;;;;;;;4970039;28;20049;-65
2024/01/12 04:44:46;;;;;;;11.30;6.50;;;;;;;;;;4950931;28;20051;-65
2024/01/12 04:47:12;;;;;;;14.68;6.63;;;;;;;;;;4958147;28;20163;-65
2024/01/12 04:49:38;;;;;;;12.02;5.93;;;;;;;;;;4952410;28;20050;-65
2024/01/12 04:52:05;;;;;;;12.32;5.65;;;;;;;;;;4965152;28;20069;-65
2024/01/12 04:54:31;;;;;;;16.38;5.70;;;;;;;;;;4968180;28;20141;-65
2024/01/12 04:56:57;;;;;;;16.20;5.65;;;;;;;;;;4951096;28;20046;-65
2024/01/12 04:59:23;;;;;;;15.77;5.80;;;;;;;;;;4949905;28;20079;-65
2024/01/12 05:01:49;;;;;;;22.45;6.82;;;;;;;;;;4949765;29;20502;-65
2024/01/12 05:04:15;;;;;;;21.25;7.22;;;;;;;;;;4950831;29;20048;-66
2024/01/12 05:06:42;;;;;;;17.70;6.22;;;;;;;;;;4950874;29;20035;-65
2024/01/12 05:09:08;;;;;;;16.75;5.93;;;;;;;;;;4951060;28;20506;-65
2024/01/12 05:11:34;;;;;;;19.10;6.85;;;;;;;;;;4950242;29;20053;-66
2024/01/12 05:14:00;;;;;;;12.70;5.15;;;;;;;;;;4950677;29;20493;-66
2024/01/12 05:16:26;;;;;;;17.92;6.15;;;;;;;;;;4957054;28;20038;-66
2024/01/12 05:18:52;;;;;;;11.77;5.22;;;;;;;;;;4970035;28;20094;-66
2024/01/12 05:21:18;;;;;;;19.88;5.50;;;;;;;;;;4953528;29;20391;-66
2024/01/12 05:23:44;;;;;;;17.48;6.20;;;;;;;;;;4964760;28;20038;-66
2024/01/12 05:26:10;;;;;;;14.85;5.80;;;;;;;;;;4966055;28;20467;-66
2024/01/12 05:28:36;;;;;;;17.73;6.13;;;;;;;;;;4954246;28;20043;-66
2024/01/12 05:31:02;;;;;;;16.15;5.18;;;;;;;;;;4953500;28;20083;-66
2024/01/12 05:33:28;;;;;;;19.60;5.32;;;;;;;;;;4953988;29;20528;-66
2024/01/12 05:35:54;;;;;;;13.93;5.57;;;;;;;;;;4953686;28;20074;-66
2024/01/12 05:38:20;;;;;;;15.90;5.28;;;;;;;;;;4954089;28;20086;-66
2024/01/12 05:40:46;;;;;;;13.60;5.93;;;;;;;;;;4971616;28;20090;-66
2024/01/12 05:43:12;;;;;;;14.05;5.35;;;;;;;;;;4967623;28;20039;-66
2024/01/12 05:45:38;;;;;;;20.27;5.78;;;;;;;;;;4953973;29;20043;-66
2024/01/12 05:48:04;;;;;;;12.60;6.13;;;;;;;;;;4953764;28;20043;-66
2024/01/12 05:50:30;;;;;;;14.30;5.40;;;;;;;;;;4953104;29;20047;-66
2024/01/12 05:52:56;;;;;;;18.98;6.90;;;;;;;;;;4973260;28;20050;-66
2024/01/12 05:55:23;;;;;;;20.48;6.57;;;;;;;;;;4965916;28;20043;-66
2024/01/12 05:57:49;;;;;;;13.60;5.60;;;;;;;;;;4953373;28;20047;-66
2024/01/12 06:00:16;;;;;;;22.00;6.68;;;;;;;;;;4952702;29;20059;-66
2024/01/12 06:02:42;;;;;;;20.73;6.15;;;;;;;;;;4968373;28;20501;-66
2024/01/12 06:05:08;;;;;;;18.45;6.47;;;;;;;;;;4992118;28;20042;-66
2024/01/12 06:07:34;;;;;;;16.38;6.75;;;;;;;;;;4984440;28;20046;-66
2024/01/12 06:10:00;;;;;;;18.33;6.38;;;;;;;;;;4972834;28;20142;-66
2024/01/12 06:12:26;;;;;;;18.98;6.68;;;;;;;;;;4974247;28;20145;-66
2024/01/12 06:14:53;;;;;;;18.50;7.38;;;;;;;;;;4989720;28;20066;-66
2024/01/12 06:17:19;;;;;;;25.38;9.48;;;;;;;;;;4985185;28;20042;-66
2024/01/12 06:19:45;;;;;;;21.15;8.65;;;;;;;;;;4965312;28;20567;-65
2024/01/12 06:22:13;;;;;;;21.73;8.38;;;;;;;;;;4972010;28;20062;-65
2024/01/12 06:24:39;;;;;;;20.15;7.68;;;;;;;;;;4972621;28;20135;-66
2024/01/12 06:27:05;;;;;;;19.52;7.03;;;;;;;;;;4983491;28;20505;-66
2024/01/12 06:29:31;;;;;;;22.83;7.00;;;;;;;;;;4952535;28;20486;-66
2024/01/12 06:31:57;;;;;;;19.77;6.40;;;;;;;;;;4962604;28;20047;-66
2024/01/12 06:34:23;;;;;;;19.52;6.68;;;;;;;;;;4972284;28;20494;-66
2024/01/12 06:36:49;;;;;;;18.92;5.82;;;;;;;;;;4972215;28;20035;-66
2024/01/12 06:39:15;;;;;;;16.42;5.93;;;;;;;;;;4969545;28;20669;-66
2024/01/12 06:41:46;;;;;;;17.45;5.47;;;;;;;;;;4970876;28;20054;-66
2024/01/12 06:44:12;;;;;;;16.10;6.38;;;;;;;;;;4957058;28;20090;-66
2024/01/12 06:46:45;;;;;;;17.63;6.85;;;;;;;;;;4970527;28;20493;-66
2024/01/12 06:49:11;;;;;;;27.60;10.90;;;;;;;;;;4971905;28;20085;-66
2024/01/12 06:51:37;;;;;;;37.17;16.88;;;;;;;;;;4971544;28;20094;-66
2024/01/12 06:54:03;;;;;;;22.60;10.02;;;;;;;;;;4971901;28;20038;-66
2024/01/12 06:56:30;;;;;;;23.88;6.22;;;;;;;;;;4971192;28;20038;-66
2024/01/12 06:58:56;;;;;;;22.50;6.65;;;;;;;;;;4972929;28;20049;-66
2024/01/12 07:01:22;;;;;;;18.35;6.13;;;;;;;;;;4976142;28;20097;-66
2024/01/12 07:03:51;;;;;;;14.80;5.93;;;;;;;;;;4971831;28;20082;-66
2024/01/12 07:06:17;;;;;;;13.95;5.53;;;;;;;;;;4971512;28;20039;-66
2024/01/12 07:08:43;;;;;;;18.95;7.55;;;;;;;;;;4971782;28;20050;-66
2024/01/12 07:11:09;;;;;;;15.40;6.85;;;;;;;;;;4953477;28;20082;-66
2024/01/12 07:13:35;;;;;;;13.38;5.70;;;;;;;;;;4971991;28;20070;-66
2024/01/12 07:16:01;;;;;;;20.55;6.38;;;;;;;;;;4973373;28;20046;-66
2024/01/12 07:18:27;;;;;;;16.17;6.05;;;;;;;;;;4990689;28;20089;-66
2024/01/12 07:20:56;;;;;;;14.13;5.40;;;;;;;;;;4974188;28;20644;-66
2024/01/12 07:23:22;;;;;;;17.83;5.60;;;;;;;;;;4967037;28;21671;-66
2024/01/12 07:25:48;;;;;;;23.70;6.13;;;;;;;;;;4967800;28;20109;-66
2024/01/12 07:28:15;;;;;;;17.90;6.07;;;;;;;;;;4970733;28;20663;-66
2024/01/12 07:30:41;;;;;;;19.50;5.88;;;;;;;;;;4963622;28;20075;-65
2024/01/12 07:33:08;;;;;;;15.70;6.07;;;;;;;;;;4966590;28;20475;-66
2024/01/12 07:35:33;;;;;;;16.23;6.60;;;;;;;;;;4968986;28;20592;-66
2024/01/12 07:38:00;;;;;;;23.98;6.32;;;;;;;;;;4959822;28;20050;-67
2024/01/12 07:40:25;;;;;;;11.82;5.93;;;;;;;;;;4969252;28;20031;-66
2024/01/12 07:42:51;;;;;;;22.40;6.40;;;;;;;;;;4967928;28;20698;-66
2024/01/12 07:45:17;;;;;;;23.67;6.90;;;;;;;;;;4967044;28;20046;-66
2024/01/12 07:47:43;;;;;;;18.50;6.30;;;;;;;;;;4968410;28;20039;-66
2024/01/12 07:50:09;;;;;;;15.70;6.10;;;;;;;;;;4970001;28;20173;-66
2024/01/12 07:52:35;;;;;;;14.88;6.68;;;;;;;;;;4970202;28;20089;-66
2024/01/12 07:55:02;;;;;;;14.32;6.15;;;;;;;;;;4965625;28;20098;-66
2024/01/12 07:57:28;;;;;;;18.33;6.65;;;;;;;;;;4957999;28;20035;-66
2024/01/12 07:59:56;;;;;;;19.85;7.38;;;;;;;;;;4962949;28;20733;-66
2024/01/12 08:02:23;;;;;;;20.88;6.32;;;;;;;;;;4955289;28;20185;-66
2024/01/12 08:04:49;;;;;;;21.70;5.80;;;;;;;;;;4966013;28;20043;-66
2024/01/12 08:07:15;;;;;;;15.23;6.13;;;;;;;;;;4965285;28;20060;-66
2024/01/12 08:09:42;;;;;;;19.48;5.97;;;;;;;;;;4966945;28;20122;-66
2024/01/12 08:12:08;;;;;;;21.10;6.85;;;;;;;;;;4965825;28;20046;-66
2024/01/12 08:14:34;;;;;;;16.17;6.22;;;;;;;;;;4968094;28;20048;-66
2024/01/12 08:17:00;;;;;;;19.80;5.97;;;;;;;;;;4973543;28;21000;-66
2024/01/12 08:19:26;;;;;;;22.08;6.47;;;;;;;;;;4964594;28;20086;-66
2024/01/12 08:21:52;;;;;;;17.52;6.30;;;;;;;;;;4947561;28;20536;-66
2024/01/12 08:24:18;;;;;;;18.40;6.38;;;;;;;;;;4969744;28;20045;-66
2024/01/12 08:26:45;;;;;;;20.05;6.05;;;;;;;;;;4965647;28;20043;-66
2024/01/12 08:29:11;;;;;;;15.82;6.10;;;;;;;;;;4969847;28;20043;-66
2024/01/12 08:31:37;;;;;;;14.27;6.40;;;;;;;;;;4954574;28;20130;-66
2024/01/12 08:34:03;;;;;;;17.42;6.15;;;;;;;;;;4974426;28;20596;-66
2024/01/12 08:36:29;;;;;;;23.40;8.07;;;;;;;;;;4980109;28;20039;-66
2024/01/12 08:38:55;;;;;;;20.17;7.25;;;;;;;;;;4973816;28;20109;-66
2024/01/12 08:41:21;;;;;;;20.58;7.15;;;;;;;;;;4961927;28;20058;-66
2024/01/12 08:43:47;;;;;;;20.45;8.43;;;;;;;;;;4948267;28;20042;-66
2024/01/12 08:46:13;;;;;;;18.65;8.85;;;;;;;;;;4977606;28;20053;-66
2024/01/12 08:48:41;;;;;;;22.25;9.60;;;;;;;;;;4976415;28;20448;-66
2024/01/12 08:51:07;;;;;;;21.42;9.35;;;;;;;;;;4968545;28;20644;-66
2024/01/12 08:53:33;;;;;;;19.30;7.78;;;;;;;;;;4965270;28;20042;-66
2024/01/12 08:55:59;;;;;;;23.95;8.05;;;;;;;;;;4962071;28;20043;-66
2024/01/12 08:58:25;;;;;;;21.33;7.40;;;;;;;;;;4966390;28;20097;-66
2024/01/12 09:00:52;;;;;;;20.10;8.10;;;;;;;;;;4955809;28;20043;-66
2024/01/12 09:03:18;;;;;;;21.60;7.55;;;;;;;;;;4965776;28;20043;-65
2024/01/12 09:05:44;;;;;;;19.85;7.22;;;;;;;;;;4970420;28;20134;-66
2024/01/12 09:08:10;;;;;;;29.73;12.30;;;;;;;;;;4972886;28;20511;-66
2024/01/12 09:10:36;;;;;;;26.77;12.60;;;;;;;;;;4971762;28;20062;-66
2024/01/12 09:13:02;;;;;;;23.38;11.25;;;;;;;;;;4974205;28;20065;-66
2024/01/12 09:15:29;;;;;;;22.45;9.30;;;;;;;;;;4970637;28;20702;-65
2024/01/12 09:17:55;;;;;;;20.00;7.95;;;;;;;;;;4970047;28;20042;-65
2024/01/12 09:20:21;;;;;;;22.60;7.18;;;;;;;;;;4968630;28;20808;-65
2024/01/12 09:22:47;;;;;;;19.52;6.70;;;;;;;;;;4963335;28;20046;-65
2024/01/12 09:25:13;;;;;;;22.48;7.00;;;;;;;;;;4968022;28;20113;-66
2024/01/12 09:27:39;;;;;;;23.23;6.80;;;;;;;;;;4974068;28;20501;-64
2024/01/12 09:30:05;;;;;;;17.83;6.70;;;;;;;;;;4966960;28;20070;-65
2024/01/12 09:32:31;;;;;;;18.58;7.90;;;;;;;;;;4968991;28;20093;-65
2024/01/12 09:34:57;;;;;;;18.48;6.45;;;;;;;;;;4970046;28;20039;-65
2024/01/12 09:37:23;;;;;;;21.55;6.10;;;;;;;;;;4969926;28;20105;-64
2024/01/12 09:39:49;;;;;;;21.40;7.55;;;;;;;;;;4969953;28;20038;-64
2024/01/12 09:42:17;;;;;;;16.63;6.40;;;;;;;;;;4974477;28;20074;-65
2024/01/12 09:44:47;;;;;;;19.25;6.22;;;;;;;;;;4964026;28;20051;-65
2024/01/12 09:47:13;;;;;;;22.73;6.97;;;;;;;;;;4973365;28;20438;-65
2024/01/12 09:49:39;;;;;;;20.42;6.03;;;;;;;;;;4971854;28;20093;-65
2024/01/12 09:52:07;;;;;;;23.60;6.90;;;;;;;;;;4970867;28;20043;-65
2024/01/12 09:54:37;;;;;;;22.30;6.00;;;;;;;;;;4972172;28;20108;-65
2024/01/12 09:57:06;;;;;;;18.23;6.10;;;;;;;;;;4972764;28;20039;-65
2024/01/12 09:59:32;;;;;;;14.63;5.00;;;;;;;;;;4967331;28;20070;-65
2024/01/12 10:01:59;;;;;;;19.48;5.85;;;;;;;;;;4971962;28;20086;-66
2024/01/12 10:04:26;;;;;;;18.00;5.22;;;;;;;;;;4970571;28;20120;-66
2024/01/12 10:06:53;;;;;;;18.52;5.10;;;;;;;;;;4972317;28;20096;-66
2024/01/12 10:09:24;;;;;;;17.52;5.30;;;;;;;;;;4971658;28;20113;-66
2024/01/12 10:11:52;;;;;;;20.87;4.80;;;;;;;;;;4976251;28;20555;-66
2024/01/12 10:14:22;;;;;;;25.10;4.63;;;;;;;;;;4971572;28;20061;-65
2024/01/12 10:16:57;;;;;;;18.67;4.63;;;;;;;;;;4976324;28;20035;-66
2024/01/12 10:19:24;;;;;;;18.42;4.22;;;;;;;;;;4971961;28;20089;-66
2024/01/12 10:21:50;;;;;;;20.02;4.40;;;;;;;;;;4970560;28;20039;-66
2024/01/12 10:24:20;;;;;;;23.45;4.30;;;;;;;;;;4975029;28;20421;-66
2024/01/12 10:26:49;;;;;;;23.23;4.30;;;;;;;;;;4976769;28;20049;-66
2024/01/12 10:29:16;;;;;;;13.02;3.60;;;;;;;;;;4971011;28;20731;-65
2024/01/12 10:31:43;;;;;;;13.13;3.15;;;;;;;;;;4972830;28;20054;-65
2024/01/12 10:34:13;;;;;;;25.80;3.70;;;;;;;;;;4967719;28;20072;-67
2024/01/12 10:36:39;;;;;;;17.70;3.67;;;;;;;;;;4964812;28;20398;-66
2024/01/12 10:39:12;;;;;;;18.60;4.00;;;;;;;;;;4961097;28;20533;-67
2024/01/12 10:41:41;;;;;;;17.17;3.97;;;;;;;;;;4970788;28;20046;-67
2024/01/12 10:44:07;;;;;;;23.20;4.07;;;;;;;;;;4968741;28;20474;-67
2024/01/12 10:46:41;;;;;;;23.50;3.75;;;;;;;;;;4969178;28;20145;-66
2024/01/12 10:49:20;;;;;;;21.40;4.10;;;;;;;;;;4963735;28;20181;-66
2024/01/12 10:52:05;;;;;;;26.13;3.70;;;;;;;;;;4959945;28;20038;-66
2024/01/12 10:54:39;;;;;;;18.50;3.55;;;;;;;;;;4972391;28;20071;-67
2024/01/12 10:57:05;;;;;;;24.45;4.28;;;;;;;;;;4970375;28;20093;-66
2024/01/12 10:59:32;;;;;;;20.80;4.10;;;;;;;;;;4969925;28;20093;-66
2024/01/12 11:02:00;;;;;;;23.55;3.20;;;;;;;;;;4975350;28;20066;-67
2024/01/12 11:04:26;;;;;;;29.05;3.92;;;;;;;;;;4969447;28;20042;-67
2024/01/12 11:06:55;;;;;;;21.25;4.07;;;;;;;;;;4968371;28;21288;-67
2024/01/12 11:09:23;;;;;;;20.60;3.28;;;;;;;;;;4966853;28;20094;-68
2024/01/12 11:12:01;;;;;;;18.33;2.97;;;;;;;;;;4969325;28;20057;-67
2024/01/12 11:14:28;;;;;;;16.80;3.28;;;;;;;;;;4968411;28;20045;-67
2024/01/12 11:16:54;;;;;;;16.15;3.22;;;;;;;;;;4971525;28;20046;-67
2024/01/12 11:19:20;;;;;;;21.08;3.58;;;;;;;;;;4967708;28;20034;-67
2024/01/12 11:21:46;;;;;;;17.98;2.95;;;;;;;;;;4969251;28;20046;-67
2024/01/12 11:24:12;;;;;;;23.67;4.40;;;;;;;;;;4952042;28;20412;-66
2024/01/12 11:26:41;;;;;;;21.42;3.85;;;;;;;;;;4971321;28;20118;-66
2024/01/12 11:29:12;;;;;;;19.83;3.38;;;;;;;;;;4972374;28;20590;-66
2024/01/12 11:31:48;;;;;;;19.05;3.30;;;;;;;;;;4968714;28;20047;-66
2024/01/12 11:34:15;;;;;;;19.75;3.85;;;;;;;;;;4962225;28;20038;-66
2024/01/12 11:36:41;;;;;;;18.02;3.30;;;;;;;;;;4967155;28;20039;-66
2024/01/12 11:39:11;;;;;;;17.48;3.72;;;;;;;;;;4963224;28;20057;-66
2024/01/12 11:41:37;;;;;;;18.85;3.30;;;;;;;;;;4960393;28;20516;-66
2024/01/12 11:44:03;;;;;;;20.73;3.33;;;;;;;;;;4951107;28;20050;-66
2024/01/12 11:46:29;;;;;;;23.70;3.90;;;;;;;;;;4968203;28;20643;-66
2024/01/12 11:48:55;;;;;;;18.13;3.40;;;;;;;;;;4968977;28;20039;-67
2024/01/12 11:51:24;;;;;;;18.50;3.35;;;;;;;;;;4968262;28;20043;-67
2024/01/12 11:53:57;;;;;;;16.08;3.30;;;;;;;;;;4968445;28;20043;-66
2024/01/12 11:56:24;;;;;;;20.23;3.10;;;;;;;;;;4966959;28;20078;-66
2024/01/12 11:58:54;;;;;;;17.92;3.03;;;;;;;;;;4968554;28;20476;-66
2024/01/12 12:01:20;;;;;;;13.68;3.30;;;;;;;;;;4956609;28;20471;-66
2024/01/12 12:03:48;;;;;;;21.20;3.88;;;;;;;;;;4969465;28;20105;-66
2024/01/12 12:06:14;;;;;;;23.58;3.78;;;;;;;;;;4971859;28;20043;-66
2024/01/12 12:08:40;;;;;;;19.17;3.28;;;;;;;;;;4970153;28;20133;-66
2024/01/12 12:11:07;;;;;;;20.45;3.83;;;;;;;;;;4969080;28;20049;-66
2024/01/12 12:13:34;;;;;;;24.58;4.95;;;;;;;;;;4969720;28;20473;-66
2024/01/12 12:16:01;;;;;;;21.30;6.57;;;;;;;;;;4969368;28;20047;-67
2024/01/12 12:18:27;;;;;;;23.65;7.65;;;;;;;;;;4969774;28;20030;-66
2024/01/12 12:20:53;;;;;;;23.02;6.85;;;;;;;;;;4969935;28;20180;-67
2024/01/12 12:23:19;;;;;;;20.48;4.32;;;;;;;;;;4971551;28;20046;-66
2024/01/12 12:25:45;;;;;;;21.70;6.55;;;;;;;;;;4975369;28;20089;-66
2024/01/12 12:28:11;;;;;;;18.98;4.68;;;;;;;;;;4970219;28;20405;-66
2024/01/12 12:30:42;;;;;;;22.52;4.13;;;;;;;;;;4969823;28;20038;-67
2024/01/12 12:33:08;;;;;;;24.63;5.57;;;;;;;;;;4969846;28;20098;-66
2024/01/12 12:35:34;;;;;;;27.23;8.88;;;;;;;;;;4968665;28;20054;-66
2024/01/12 12:38:01;;;;;;;23.17;7.63;;;;;;;;;;4969964;28;20035;-66
2024/01/12 12:40:27;;;;;;;26.20;5.90;;;;;;;;;;4969743;28;20092;-66
2024/01/12 12:42:53;;;;;;;19.95;5.00;;;;;;;;;;4959952;28;20047;-66
2024/01/12 12:45:20;;;;;;;25.33;4.93;;;;;;;;;;4953548;28;20053;-66
2024/01/12 12:47:47;;;;;;;21.48;4.65;;;;;;;;;;4969622;28;20042;-66
2024/01/12 12:50:13;;;;;;;22.83;4.15;;;;;;;;;;4970269;28;20663;-66
2024/01/12 12:52:39;;;;;;;18.98;4.18;;;;;;;;;;4957712;28;20034;-66
2024/01/12 12:55:06;;;;;;;16.88;3.50;;;;;;;;;;4969035;28;20087;-68
2024/01/12 12:57:33;;;;;;;24.10;3.85;;;;;;;;;;4971603;28;20039;-67
2024/01/12 12:59:59;;;;;;;16.02;3.30;;;;;;;;;;4975015;28;20045;-67
2024/01/12 13:02:25;;;;;;;20.27;3.60;;;;;;;;;;4968653;28;20058;-67
2024/01/12 13:04:55;;;;;;;21.63;4.22;;;;;;;;;;4958112;28;20178;-67
2024/01/12 13:07:21;;;;;;;25.33;3.65;;;;;;;;;;4969146;28;20047;-67
2024/01/12 13:09:47;;;;;;;15.98;3.13;;;;;;;;;;4972302;28;20106;-67
2024/01/12 13:12:14;;;;;;;24.40;4.43;;;;;;;;;;4969380;28;20122;-68
2024/01/12 13:14:40;;;;;;;23.10;3.50;;;;;;;;;;4969893;28;20110;-68
2024/01/12 13:17:05;;;;;;;16.30;3.00;;;;;;;;;;4971683;28;20039;-67
2024/01/12 13:19:32;;;;;;;19.70;3.97;;;;;;;;;;4969426;28;20042;-68
2024/01/12 13:21:58;;;;;;;25.88;3.30;;;;;;;;;;4978065;28;20042;-66
2024/01/12 13:24:24;;;;;;;24.02;3.92;;;;;;;;;;4969141;28;20405;-66
2024/01/12 13:26:50;;;;;;;18.88;2.70;;;;;;;;;;4973026;28;20035;-66
2024/01/12 13:29:16;;;;;;;25.27;3.65;;;;;;;;;;4969145;28;20126;-66
2024/01/12 13:31:42;;;;;;;15.80;3.38;;;;;;;;;;4969110;28;20159;-66
2024/01/12 13:34:09;;;;;;;23.73;4.55;;;;;;;;;;4969068;28;20693;-66
2024/01/12 13:36:36;;;;;;;18.05;3.92;;;;;;;;;;4951787;28;20039;-66
2024/01/12 13:39:02;;;;;;;18.50;3.40;;;;;;;;;;4970865;28;20643;-67
2024/01/12 13:41:28;;;;;;;16.80;3.42;;;;;;;;;;4972761;28;20042;-66
2024/01/12 13:43:54;;;;;;;12.98;3.33;;;;;;;;;;4955347;28;20055;-66
2024/01/12 13:46:20;;;;;;;15.65;3.10;;;;;;;;;;4971649;28;20042;-65
2024/01/12 13:48:46;;;;;;;19.88;4.03;;;;;;;;;;4972710;28;20078;-66
2024/01/12 13:51:15;;;;;;;19.40;4.75;;;;;;;;;;4970367;28;20054;-66
2024/01/12 13:53:41;;;;;;;21.42;4.30;;;;;;;;;;4970394;28;20093;-67
2024/01/12 13:56:07;;;;;;;22.00;4.70;;;;;;;;;;4965230;28;20043;-66
2024/01/12 13:58:33;;;;;;;26.30;6.95;;;;;;;;;;4965830;28;20045;-67
2024/01/12 14:01:00;;;;;;;30.08;5.75;;;;;;;;;;4968263;28;20043;-66
2024/01/12 14:03:26;;;;;;;29.67;5.32;;;;;;;;;;4960795;28;20137;-66
2024/01/12 14:05:54;;;;;;;26.08;5.18;;;;;;;;;;4970275;28;20042;-66
2024/01/12 14:08:21;;;;;;;24.77;4.90;;;;;;;;;;4970269;28;20142;-66
2024/01/12 14:10:51;;;;;;;20.13;4.32;;;;;;;;;;4971836;28;20391;-67
2024/01/12 14:13:17;;;;;;;19.13;4.07;;;;;;;;;;4970734;28;20042;-66
2024/01/12 14:15:43;;;;;;;26.77;5.28;;;;;;;;;;4971192;28;20730;-67
2024/01/12 14:18:10;;;;;;;19.50;3.92;;;;;;;;;;4966823;28;20100;-67
2024/01/12 14:20:37;;;;;;;22.35;4.10;;;;;;;;;;4971068;28;20035;-68
2024/01/12 14:23:03;;;;;;;18.65;3.85;;;;;;;;;;4970396;28;20042;-68
2024/01/12 14:25:29;;;;;;;22.90;4.43;;;;;;;;;;4971419;28;20125;-67